Time;durP1;ratioP1;P1;durP2;ratioP2;P2;SDS_P1;SDS_P2;PMS_P1;PMS_P2;Temp;Humidity;BMP_temperature;BMP_pressure;BME280_temperature;BME280_humidity;BME280_pressure;Samples;Min_cycle;Max_cycle;Signal;HPM_P1;HPM_P2
2021/08/20 00:01:40;;;;;;;;;;;23.80;47.00;;;;;;1533299;76;697;-67
2021/08/20 00:03:42;;;;;;;;;;;23.80;47.00;;;;;;1545576;76;693;-66
2021/08/20 00:05:44;;;;;;;;;;;23.80;47.00;;;;;;1549640;76;675;-66
2021/08/20 00:07:46;;;;;;;;;;;23.80;47.00;;;;;;1545818;76;1142;-67
2021/08/20 00:09:49;;;;;;;;;;;23.80;47.10;;;;;;1539731;76;688;-66
2021/08/20 00:11:51;;;;;;;;;;;23.80;47.00;;;;;;1535297;76;997;-65
2021/08/20 00:13:53;;;;;;;;;;;23.80;47.10;;;;;;1545413;76;772;-67
2021/08/20 00:15:55;;;;;;;;;;;23.80;47.00;;;;;;1540544;76;836;-67
2021/08/20 00:17:57;;;;;;;;;;;23.80;47.10;;;;;;1532259;76;1944;-68
2021/08/20 00:19:59;;;;;;;;;;;23.80;47.00;;;;;;1541053;76;723;-68
2021/08/20 00:22:01;;;;;;;;;;;23.80;47.10;;;;;;1528895;76;712;-67
2021/08/20 00:24:03;;;;;;;;;;;23.80;47.10;;;;;;1532654;76;792;-66
2021/08/20 00:26:05;;;;;;;;;;;23.70;47.10;;;;;;1543201;76;637;-68
2021/08/20 00:28:07;;;;;;;;;;;23.80;47.10;;;;;;1544161;76;1215;-67
2021/08/20 00:30:09;;;;;;;;;;;23.80;47.10;;;;;;1536376;76;640;-67
2021/08/20 00:32:11;;;;;;;;;;;23.80;47.10;;;;;;1537605;77;649;-67
2021/08/20 00:34:13;;;;;;;;;;;23.80;47.00;;;;;;1543912;76;891;-66
2021/08/20 00:36:15;;;;;;;;;;;23.80;47.00;;;;;;1532541;76;1926;-67
2021/08/20 00:38:17;;;;;;;;;;;23.80;47.10;;;;;;1537849;76;1128;-68
2021/08/20 00:40:18;;;;;;;;;;;23.80;47.10;;;;;;1526528;77;726;-69
2021/08/20 00:42:20;;;;;;;;;;;23.70;47.10;;;;;;1532994;76;702;-67
2021/08/20 00:44:22;;;;;;;;;;;23.80;47.10;;;;;;1545780;76;727;-68
2021/08/20 00:46:24;;;;;;;;;;;23.70;47.00;;;;;;1544396;76;745;-67
2021/08/20 00:48:26;;;;;;;;;;;23.80;47.10;;;;;;1537195;76;1090;-67
2021/08/20 00:50:28;;;;;;;;;;;23.80;47.10;;;;;;1536181;76;767;-67
2021/08/20 00:52:30;;;;;;;;;;;23.80;47.10;;;;;;1542544;76;774;-66
2021/08/20 00:54:32;;;;;;;;;;;23.80;47.10;;;;;;1543202;76;711;-66
2021/08/20 00:56:33;;;;;;;;;;;23.80;47.10;;;;;;1538543;76;1932;-67
2021/08/20 00:58:35;;;;;;;;;;;23.70;47.10;;;;;;1538822;76;1232;-68
2021/08/20 01:00:40;;;;;;;;;;;23.70;47.10;;;;;;1534322;76;806;-66
2021/08/20 01:02:41;;;;;;;;;;;23.70;47.10;;;;;;1543765;76;1968;-66
2021/08/20 01:04:43;;;;;;;;;;;23.80;47.20;;;;;;1540267;76;733;-66
2021/08/20 01:06:45;;;;;;;;;;;23.80;47.10;;;;;;1549603;76;1158;-67
2021/08/20 01:08:47;;;;;;;;;;;23.80;47.10;;;;;;1541510;76;720;-66
2021/08/20 01:10:49;;;;;;;;;;;23.80;47.10;;;;;;1531923;76;778;-66
2021/08/20 01:12:51;;;;;;;;;;;23.80;47.20;;;;;;1529452;76;713;-67
2021/08/20 01:14:53;;;;;;;;;;;23.80;47.20;;;;;;1542076;76;717;-64
2021/08/20 01:16:55;;;;;;;;;;;23.70;47.20;;;;;;1536900;76;1929;-67
2021/08/20 01:18:57;;;;;;;;;;;23.80;47.20;;;;;;1543589;76;1105;-66
2021/08/20 01:21:00;;;;;;;;;;;23.70;47.20;;;;;;1543792;76;671;-67
2021/08/20 01:23:06;;;;;;;;;;;23.70;47.20;;;;;;1529960;76;720;-66
2021/08/20 01:25:06;;;;;;;;;;;23.80;47.20;;;;;;1550281;76;1604;-67
2021/08/20 01:27:08;;;;;;;;;;;23.80;47.20;;;;;;1534589;76;1122;-66
2021/08/20 01:29:16;;;;;;;;;;;23.70;47.20;;;;;;1541808;76;716;-66
2021/08/20 01:31:14;;;;;;;;;;;23.80;47.30;;;;;;1536484;76;1555;-67
2021/08/20 01:33:16;;;;;;;;;;;23.80;47.30;;;;;;1546356;76;736;-67
2021/08/20 01:35:18;;;;;;;;;;;23.80;47.30;;;;;;1544921;76;787;-65
2021/08/20 01:37:19;;;;;;;;;;;23.80;47.30;;;;;;1530712;76;1937;-67
2021/08/20 01:39:21;;;;;;;;;;;23.80;47.30;;;;;;1544276;76;682;-66
2021/08/20 01:41:24;;;;;;;;;;;23.80;47.30;;;;;;1544645;77;774;-67
2021/08/20 01:43:26;;;;;;;;;;;23.80;47.30;;;;;;1544012;76;722;-68
2021/08/20 01:45:28;;;;;;;;;;;23.80;47.30;;;;;;1534359;76;723;-66
2021/08/20 01:47:30;;;;;;;;;;;23.70;47.30;;;;;;1542078;73;223525;-62
2021/08/20 01:49:32;;;;;;;;;;;23.80;47.30;;;;;;1580115;74;808;-61
2021/08/20 01:51:34;;;;;;;;;;;23.80;47.40;;;;;;1568638;75;833;-62
2021/08/20 01:53:35;;;;;;;;;;;23.80;47.40;;;;;;1585806;74;759;-62
2021/08/20 01:55:37;;;;;;;;;;;23.80;47.30;;;;;;1587703;74;764;-63
2021/08/20 01:57:40;;;;;;;;;;;23.70;47.40;;;;;;1577985;74;1939;-62
2021/08/20 01:59:42;;;;;;;;;;;23.70;47.30;;;;;;1584294;74;732;-63
2021/08/20 02:01:44;;;;;;;;;;;23.80;47.40;;;;;;1572671;74;744;-62
2021/08/20 02:03:46;;;;;;;;;;;23.80;47.40;;;;;;1574977;74;776;-62
2021/08/20 02:05:48;;;;;;;;;;;23.80;47.40;;;;;;1571509;74;683;-61
2021/08/20 02:07:50;;;;;;;;;;;23.70;47.40;;;;;;1594803;74;1115;-62
2021/08/20 02:09:52;;;;;;;;;;;23.70;47.40;;;;;;1584236;74;774;-62
2021/08/20 02:11:53;;;;;;;;;;;23.70;47.30;;;;;;1588268;74;715;-62
2021/08/20 02:13:55;;;;;;;;;;;23.80;47.40;;;;;;1587482;74;799;-62
2021/08/20 02:15:57;;;;;;;;;;;23.70;47.40;;;;;;1563272;74;799;-63
2021/08/20 02:17:59;;;;;;;;;;;23.70;47.40;;;;;;1589816;74;1937;-62
2021/08/20 02:20:01;;;;;;;;;;;23.70;47.40;;;;;;1579824;74;778;-60
2021/08/20 02:22:03;;;;;;;;;;;23.80;47.50;;;;;;1582124;74;690;-62
2021/08/20 02:24:05;;;;;;;;;;;23.70;47.50;;;;;;1577425;74;783;-62
2021/08/20 02:26:07;;;;;;;;;;;23.80;47.40;;;;;;1586373;74;752;-63
2021/08/20 02:28:09;;;;;;;;;;;23.80;47.40;;;;;;1589366;74;1102;-60
2021/08/20 02:30:11;;;;;;;;;;;23.70;47.40;;;;;;1573348;74;791;-63
2021/08/20 02:32:13;;;;;;;;;;;23.80;47.50;;;;;;1577767;74;813;-62
2021/08/20 02:34:15;;;;;;;;;;;23.70;47.50;;;;;;1586270;74;683;-63
2021/08/20 02:36:16;;;;;;;;;;;23.80;47.50;;;;;;1581528;74;767;-62
2021/08/20 02:38:18;;;;;;;;;;;23.70;47.50;;;;;;1583673;74;1937;-63
2021/08/20 02:40:20;;;;;;;;;;;23.80;47.50;;;;;;1562450;74;736;-63
2021/08/20 02:42:22;;;;;;;;;;;23.70;47.40;;;;;;1570395;74;786;-62
2021/08/20 02:44:24;;;;;;;;;;;23.70;47.50;;;;;;1562463;74;677;-63
2021/08/20 02:46:26;;;;;;;;;;;23.80;47.40;;;;;;1576441;74;853;-63
2021/08/20 02:48:28;;;;;;;;;;;23.70;47.40;;;;;;1577495;74;1142;-62
2021/08/20 02:50:30;;;;;;;;;;;23.80;47.40;;;;;;1591668;74;803;-63
2021/08/20 02:52:32;;;;;;;;;;;23.80;47.40;;;;;;1574822;74;737;-63
2021/08/20 02:54:34;;;;;;;;;;;23.80;47.50;;;;;;1586369;74;728;-63
2021/08/20 02:56:35;;;;;;;;;;;23.80;47.50;;;;;;1570746;74;752;-62
2021/08/20 02:58:37;;;;;;;;;;;23.70;47.50;;;;;;1576082;74;1960;-62
2021/08/20 03:00:39;;;;;;;;;;;23.70;47.40;;;;;;1564371;74;731;-62
2021/08/20 03:02:41;;;;;;;;;;;23.70;47.40;;;;;;1574996;74;744;-62
2021/08/20 03:04:43;;;;;;;;;;;23.70;47.50;;;;;;1573665;74;817;-62
2021/08/20 03:06:45;;;;;;;;;;;23.80;47.50;;;;;;1584079;74;695;-62
2021/08/20 03:08:47;;;;;;;;;;;23.70;47.50;;;;;;1572470;74;1095;-63
2021/08/20 03:10:49;;;;;;;;;;;23.80;47.50;;;;;;1580168;74;807;-63
2021/08/20 03:12:50;;;;;;;;;;;23.70;47.50;;;;;;1581931;74;773;-63
2021/08/20 03:14:52;;;;;;;;;;;23.80;47.50;;;;;;1581160;74;750;-62
2021/08/20 03:16:54;;;;;;;;;;;23.70;47.50;;;;;;1579415;74;804;-63
2021/08/20 03:18:56;;;;;;;;;;;23.80;47.50;;;;;;1586989;74;1935;-63
2021/08/20 03:20:58;;;;;;;;;;;23.80;47.50;;;;;;1571463;74;694;-62
2021/08/20 03:23:00;;;;;;;;;;;23.70;47.50;;;;;;1591644;74;730;-61
2021/08/20 03:25:02;;;;;;;;;;;23.70;47.60;;;;;;1572164;74;781;-62
2021/08/20 03:27:04;;;;;;;;;;;23.70;47.60;;;;;;1569726;74;1088;-63
2021/08/20 03:29:06;;;;;;;;;;;23.80;47.60;;;;;;1578338;74;689;-61
2021/08/20 03:31:08;;;;;;;;;;;23.70;47.60;;;;;;1569776;74;801;-63
2021/08/20 03:33:10;;;;;;;;;;;23.70;47.60;;;;;;1569817;74;704;-62
2021/08/20 03:35:14;;;;;;;;;;;23.70;47.60;;;;;;1583237;74;690;-62
2021/08/20 03:37:15;;;;;;;;;;;23.70;47.60;;;;;;1571351;74;1720;-61
2021/08/20 03:39:17;;;;;;;;;;;23.80;47.60;;;;;;1577092;74;1946;-62
2021/08/20 03:41:19;;;;;;;;;;;23.70;47.60;;;;;;1576986;74;781;-62
2021/08/20 03:43:21;;;;;;;;;;;23.70;47.60;;;;;;1576984;75;780;-61
2021/08/20 03:45:23;;;;;;;;;;;23.70;47.60;;;;;;1566382;74;800;-62
2021/08/20 03:47:25;;;;;;;;;;;23.70;47.60;;;;;;1567013;74;1140;-62
2021/08/20 03:49:26;;;;;;;;;;;23.70;47.60;;;;;;1574663;74;1179;-63
2021/08/20 03:51:28;;;;;;;;;;;23.70;47.60;;;;;;1564036;75;727;-62
2021/08/20 03:53:30;;;;;;;;;;;23.70;47.60;;;;;;1576932;74;744;-62
2021/08/20 03:55:32;;;;;;;;;;;23.70;47.60;;;;;;1577021;74;783;-63
2021/08/20 03:57:34;;;;;;;;;;;23.70;47.60;;;;;;1571162;74;1955;-62
2021/08/20 03:59:36;;;;;;;;;;;23.70;47.60;;;;;;1570565;74;682;-62
2021/08/20 04:01:38;;;;;;;;;;;23.70;47.60;;;;;;1573776;74;711;-62
2021/08/20 04:03:39;;;;;;;;;;;23.70;47.60;;;;;;1577037;75;795;-62
2021/08/20 04:05:41;;;;;;;;;;;23.80;47.50;;;;;;1575591;74;741;-62
2021/08/20 04:07:43;;;;;;;;;;;23.70;47.60;;;;;;1568042;74;1116;-62
2021/08/20 04:09:45;;;;;;;;;;;23.70;47.60;;;;;;1590188;74;728;-62
2021/08/20 04:11:47;;;;;;;;;;;23.80;47.60;;;;;;1575324;74;729;-59
2021/08/20 04:13:49;;;;;;;;;;;23.70;47.50;;;;;;1584619;74;721;-61
2021/08/20 04:15:51;;;;;;;;;;;23.70;47.50;;;;;;1585750;74;771;-62
2021/08/20 04:17:53;;;;;;;;;;;23.70;47.60;;;;;;1573220;74;1937;-60
2021/08/20 04:19:55;;;;;;;;;;;23.70;47.60;;;;;;1584061;74;716;-62
2021/08/20 04:21:57;;;;;;;;;;;23.70;47.60;;;;;;1582678;74;657;-62
2021/08/20 04:23:59;;;;;;;;;;;23.70;47.60;;;;;;1571070;74;785;-62
2021/08/20 04:26:01;;;;;;;;;;;23.70;47.50;;;;;;1580999;74;705;-62
2021/08/20 04:28:03;;;;;;;;;;;23.70;47.60;;;;;;1592228;74;1119;-62
2021/08/20 04:30:06;;;;;;;;;;;23.70;47.60;;;;;;1582174;74;704;-62
2021/08/20 04:32:08;;;;;;;;;;;23.70;47.60;;;;;;1588388;74;745;-62
2021/08/20 04:34:10;;;;;;;;;;;23.70;47.60;;;;;;1573255;74;791;-62
2021/08/20 04:36:12;;;;;;;;;;;23.70;47.60;;;;;;1573753;74;715;-63
2021/08/20 04:38:14;;;;;;;;;;;23.70;47.60;;;;;;1579746;74;1966;-63
2021/08/20 04:40:16;;;;;;;;;;;23.60;47.40;;;;;;1575448;74;882;-61
2021/08/20 04:42:18;;;;;;;;;;;23.60;47.40;;;;;;1577089;74;741;-63
2021/08/20 04:44:19;;;;;;;;;;;23.70;47.60;;;;;;1569818;74;759;-61
2021/08/20 04:46:21;;;;;;;;;;;23.70;47.60;;;;;;1567098;74;790;-60
2021/08/20 04:48:23;;;;;;;;;;;23.60;47.50;;;;;;1577096;74;1143;-63
2021/08/20 04:50:28;;;;;;;;;;;23.60;47.50;;;;;;1574939;74;866;-63
2021/08/20 04:52:29;;;;;;;;;;;23.70;47.60;;;;;;1562483;74;1525;-62
2021/08/20 04:54:30;;;;;;;;;;;23.70;47.60;;;;;;1567775;74;732;-62
2021/08/20 04:56:32;;;;;;;;;;;23.70;47.60;;;;;;1577239;74;674;-63
2021/08/20 04:58:35;;;;;;;;;;;23.70;47.60;;;;;;1577079;74;1946;-63
2021/08/20 05:00:37;;;;;;;;;;;23.70;47.60;;;;;;1562740;74;763;-63
2021/08/20 05:02:39;;;;;;;;;;;23.60;47.60;;;;;;1571542;74;708;-63
2021/08/20 05:04:41;;;;;;;;;;;23.70;47.70;;;;;;1575340;74;775;-62
2021/08/20 05:06:43;;;;;;;;;;;23.70;47.70;;;;;;1568865;74;804;-63
2021/08/20 05:08:45;;;;;;;;;;;23.70;47.60;;;;;;1573345;74;1131;-63
2021/08/20 05:10:46;;;;;;;;;;;23.70;47.70;;;;;;1568200;74;731;-62
2021/08/20 05:12:48;;;;;;;;;;;23.70;47.70;;;;;;1576897;74;762;-63
2021/08/20 05:14:50;;;;;;;;;;;23.70;47.70;;;;;;1582054;74;781;-62
2021/08/20 05:16:52;;;;;;;;;;;23.70;47.70;;;;;;1581508;74;723;-63
2021/08/20 05:18:55;;;;;;;;;;;23.70;47.70;;;;;;1578244;74;1930;-62
2021/08/20 05:20:57;;;;;;;;;;;23.70;47.80;;;;;;1584742;74;757;-62
2021/08/20 05:22:59;;;;;;;;;;;23.80;47.70;;;;;;1579985;74;716;-61
2021/08/20 05:25:01;;;;;;;;;;;23.60;47.60;;;;;;1572160;74;776;-62
2021/08/20 05:27:03;;;;;;;;;;;23.60;47.60;;;;;;1575691;74;1098;-62
2021/08/20 05:29:05;;;;;;;;;;;23.70;47.80;;;;;;1578949;74;797;-62
2021/08/20 05:31:07;;;;;;;;;;;23.70;47.80;;;;;;1564628;74;712;-62
2021/08/20 05:33:09;;;;;;;;;;;23.70;47.80;;;;;;1590773;74;810;-63
2021/08/20 05:35:12;;;;;;;;;;;23.80;47.80;;;;;;1584135;74;717;-62
2021/08/20 05:37:14;;;;;;;;;;;23.70;47.80;;;;;;1586844;74;1135;-62
2021/08/20 05:39:16;;;;;;;;;;;23.70;47.80;;;;;;1570590;74;1933;-60
2021/08/20 05:41:18;;;;;;;;;;;23.70;47.80;;;;;;1569252;74;773;-62
2021/08/20 05:43:19;;;;;;;;;;;23.60;47.60;;;;;;1570577;74;762;-63
2021/08/20 05:45:21;;;;;;;;;;;23.70;47.80;;;;;;1576911;74;791;-62
2021/08/20 05:47:23;;;;;;;;;;;23.70;47.80;;;;;;1576931;74;1208;-63
2021/08/20 05:49:25;;;;;;;;;;;23.70;47.80;;;;;;1575317;74;780;-62
2021/08/20 05:51:27;;;;;;;;;;;23.80;47.80;;;;;;1566427;74;689;-62
2021/08/20 05:53:29;;;;;;;;;;;23.70;47.80;;;;;;1576800;74;770;-62
2021/08/20 05:55:31;;;;;;;;;;;23.70;47.90;;;;;;1582870;74;763;-62
2021/08/20 05:57:33;;;;;;;;;;;23.70;47.80;;;;;;1570134;74;1289;-63
2021/08/20 05:59:35;;;;;;;;;;;23.70;47.90;;;;;;1570017;75;1898;-62
2021/08/20 06:01:37;;;;;;;;;;;23.70;47.80;;;;;;1577187;74;761;-62
2021/08/20 06:03:39;;;;;;;;;;;23.70;47.90;;;;;;1563078;74;666;-62
2021/08/20 06:05:41;;;;;;;;;;;23.70;47.90;;;;;;1573817;74;686;-63
2021/08/20 06:07:43;;;;;;;;;;;23.70;48.00;;;;;;1569167;74;1143;-62
2021/08/20 06:09:44;;;;;;;;;;;23.70;47.90;;;;;;1596453;74;714;-63
2021/08/20 06:11:46;;;;;;;;;;;23.70;48.00;;;;;;1585294;74;746;-60
2021/08/20 06:13:49;;;;;;;;;;;23.70;48.00;;;;;;1579931;74;765;-62
2021/08/20 06:15:51;;;;;;;;;;;23.70;48.10;;;;;;1582779;74;795;-62
2021/08/20 06:17:53;;;;;;;;;;;23.70;48.10;;;;;;1581927;74;1157;-62
2021/08/20 06:19:55;;;;;;;;;;;23.70;48.10;;;;;;1568021;74;1935;-62
2021/08/20 06:21:57;;;;;;;;;;;23.70;48.10;;;;;;1578487;74;725;-63
2021/08/20 06:23:59;;;;;;;;;;;23.70;48.10;;;;;;1578795;74;745;-62
2021/08/20 06:26:01;;;;;;;;;;;23.70;48.10;;;;;;1578762;74;692;-62
2021/08/20 06:28:02;;;;;;;;;;;23.70;48.10;;;;;;1578715;74;1125;-63
2021/08/20 06:30:05;;;;;;;;;;;23.70;48.10;;;;;;1573420;74;635;-62
2021/08/20 06:32:07;;;;;;;;;;;23.70;48.20;;;;;;1561251;74;778;-62
2021/08/20 06:34:09;;;;;;;;;;;23.70;48.20;;;;;;1579581;74;778;-63
2021/08/20 06:36:10;;;;;;;;;;;23.70;48.10;;;;;;1568166;74;704;-63
2021/08/20 06:38:12;;;;;;;;;;;23.70;48.10;;;;;;1567026;74;1144;-61
2021/08/20 06:40:14;;;;;;;;;;;23.70;48.10;;;;;;1577213;74;1946;-63
2021/08/20 06:42:16;;;;;;;;;;;23.70;48.10;;;;;;1557303;74;650;-62
2021/08/20 06:44:18;;;;;;;;;;;23.70;48.10;;;;;;1575997;74;719;-61
2021/08/20 06:46:20;;;;;;;;;;;23.70;48.20;;;;;;1569627;74;776;-63
2021/08/20 06:48:22;;;;;;;;;;;23.70;48.20;;;;;;1576479;74;1120;-62
2021/08/20 06:50:24;;;;;;;;;;;23.70;48.20;;;;;;1566227;74;791;-63
2021/08/20 06:52:25;;;;;;;;;;;23.70;48.20;;;;;;1565674;74;694;-62
2021/08/20 06:54:27;;;;;;;;;;;23.70;48.20;;;;;;1577158;75;760;-62
2021/08/20 06:56:30;;;;;;;;;;;23.70;48.20;;;;;;1567359;74;710;-62
2021/08/20 06:58:32;;;;;;;;;;;23.70;48.20;;;;;;1576509;74;1102;-62
2021/08/20 07:00:33;;;;;;;;;;;23.70;48.20;;;;;;1576155;74;1930;-62
2021/08/20 07:02:45;;;;;;;;;;;23.70;48.10;;;;;;1570172;74;854;-62
2021/08/20 07:04:47;;;;;;;;;;;23.70;48.10;;;;;;1563742;74;785;-62
2021/08/20 07:06:49;;;;;;;;;;;23.70;48.10;;;;;;1564847;74;705;-63
2021/08/20 07:08:51;;;;;;;;;;;23.70;48.10;;;;;;1581147;74;1070;-63
2021/08/20 07:10:54;;;;;;;;;;;23.70;48.10;;;;;;1587627;74;803;-62
2021/08/20 07:12:56;;;;;;;;;;;23.70;48.10;;;;;;1577841;74;816;-62
2021/08/20 07:14:58;;;;;;;;;;;23.70;48.10;;;;;;1570428;74;764;-62
2021/08/20 07:17:00;;;;;;;;;;;23.70;48.10;;;;;;1576918;74;1112;-61
2021/08/20 07:19:02;;;;;;;;;;;23.70;48.10;;;;;;1566939;74;1919;-63
2021/08/20 07:21:04;;;;;;;;;;;23.70;48.10;;;;;;1582208;74;803;-62
2021/08/20 07:23:06;;;;;;;;;;;23.80;48.00;;;;;;1589131;74;787;-62
2021/08/20 07:25:08;;;;;;;;;;;23.80;48.10;;;;;;1566087;74;704;-63
2021/08/20 07:27:10;;;;;;;;;;;23.70;48.00;;;;;;1574143;74;1130;-62
2021/08/20 07:29:12;;;;;;;;;;;23.70;48.00;;;;;;1572709;74;723;-62
2021/08/20 07:31:14;;;;;;;;;;;23.80;48.00;;;;;;1580015;74;747;-62
2021/08/20 07:33:15;;;;;;;;;;;23.80;48.00;;;;;;1576777;74;771;-60
2021/08/20 07:35:17;;;;;;;;;;;23.80;47.90;;;;;;1561802;74;802;-62
2021/08/20 07:37:19;;;;;;;;;;;23.70;48.00;;;;;;1574338;74;1156;-62
2021/08/20 07:39:21;;;;;;;;;;;23.70;47.90;;;;;;1579894;74;1910;-62
2021/08/20 07:41:23;;;;;;;;;;;23.80;47.90;;;;;;1578685;74;798;-63
2021/08/20 07:43:25;;;;;;;;;;;23.80;47.90;;;;;;1571884;74;732;-63
2021/08/20 07:45:27;;;;;;;;;;;23.70;48.00;;;;;;1565010;74;845;-61
2021/08/20 07:47:29;;;;;;;;;;;23.80;48.00;;;;;;1572483;73;226521;-63
2021/08/20 07:49:31;;;;;;;;;;;23.70;48.00;;;;;;1574737;74;686;-67
2021/08/20 07:51:33;;;;;;;;;;;23.80;47.90;;;;;;1566013;75;767;-67
2021/08/20 07:53:34;;;;;;;;;;;23.80;47.90;;;;;;1555862;75;759;-68
2021/08/20 07:55:36;;;;;;;;;;;23.80;47.90;;;;;;1567777;75;599;-67
2021/08/20 07:57:45;;;;;;;;;;;23.80;47.90;;;;;;1568187;75;1191;-67
2021/08/20 07:59:47;;;;;;;;;;;23.80;47.90;;;;;;1555694;76;1926;-67
2021/08/20 08:01:48;;;;;;;;;;;23.80;47.90;;;;;;1549396;76;790;-67
2021/08/20 08:03:51;;;;;;;;;;;23.80;47.90;;;;;;1546967;76;773;-68
2021/08/20 08:05:53;;;;;;;;;;;23.80;47.90;;;;;;1543778;76;717;-67
2021/08/20 08:07:55;;;;;;;;;;;23.80;47.90;;;;;;1541844;76;1153;-67
2021/08/20 08:09:57;;;;;;;;;;;23.80;47.90;;;;;;1544876;76;731;-67
2021/08/20 08:11:59;;;;;;;;;;;23.80;47.90;;;;;;1542224;75;829;-69
2021/08/20 08:14:05;;;;;;;;;;;23.80;47.90;;;;;;1552370;76;680;-68
2021/08/20 08:16:07;;;;;;;;;;;23.80;48.00;;;;;;1550487;76;690;-67
2021/08/20 08:18:09;;;;;;;;;;;23.80;47.90;;;;;;1555217;75;1221;-68
2021/08/20 08:20:12;;;;;;;;;;;23.80;47.90;;;;;;1542834;76;1935;-67
2021/08/20 08:22:14;;;;;;;;;;;23.90;48.00;;;;;;1548834;76;744;-67
2021/08/20 08:24:15;;;;;;;;;;;23.80;47.90;;;;;;1544967;76;734;-67
2021/08/20 08:26:17;;;;;;;;;;;23.90;48.00;;;;;;1545276;76;818;-67
2021/08/20 08:28:22;;;;;;;;;;;23.80;47.90;;;;;;1545904;76;1111;-67
2021/08/20 08:30:26;;;;;;;;;;;23.90;48.00;;;;;;1549176;76;734;-68
2021/08/20 08:32:28;;;;;;;;;;;23.90;48.00;;;;;;1551219;76;732;-67
2021/08/20 08:34:30;;;;;;;;;;;23.80;47.90;;;;;;1541612;76;741;-67
2021/08/20 08:36:35;;;;;;;;;;;23.90;48.00;;;;;;1540313;76;752;-68
2021/08/20 08:38:35;;;;;;;;;;;23.90;48.10;;;;;;1543352;75;1707;-67
2021/08/20 08:40:37;;;;;;;;;;;23.90;48.10;;;;;;1527583;76;1948;-67
2021/08/20 08:42:39;;;;;;;;;;;23.90;48.10;;;;;;1536090;76;727;-67
2021/08/20 08:44:42;;;;;;;;;;;23.80;48.10;;;;;;1539886;76;660;-67
2021/08/20 08:46:44;;;;;;;;;;;23.90;48.20;;;;;;1534554;76;788;-67
2021/08/20 08:48:46;;;;;;;;;;;23.90;48.10;;;;;;1542112;76;1127;-68
2021/08/20 08:50:48;;;;;;;;;;;23.90;48.20;;;;;;1540508;76;673;-67
2021/08/20 08:52:50;;;;;;;;;;;23.90;48.20;;;;;;1549638;76;720;-67
2021/08/20 08:54:52;;;;;;;;;;;23.80;48.10;;;;;;1549586;76;762;-67
2021/08/20 08:56:54;;;;;;;;;;;23.80;48.10;;;;;;1546015;75;657;-68
2021/08/20 08:58:56;;;;;;;;;;;23.90;48.30;;;;;;1534219;76;1153;-68
2021/08/20 09:00:57;;;;;;;;;;;23.90;48.30;;;;;;1540048;76;1952;-66
2021/08/20 09:03:00;;;;;;;;;;;23.90;48.40;;;;;;1551319;76;776;-68
2021/08/20 09:05:02;;;;;;;;;;;24.00;48.40;;;;;;1535810;76;724;-67
2021/08/20 09:07:04;;;;;;;;;;;23.90;48.50;;;;;;1543428;75;735;-67
2021/08/20 09:09:06;;;;;;;;;;;24.00;48.50;;;;;;1547649;76;1191;-67
2021/08/20 09:11:13;;;;;;;;;;;24.00;48.40;;;;;;1553831;76;788;-68
2021/08/20 09:13:12;;;;;;;;;;;24.00;48.50;;;;;;1547115;76;1641;-67
2021/08/20 09:15:14;;;;;;;;;;;24.00;48.60;;;;;;1552650;76;690;-67
2021/08/20 09:17:16;;;;;;;;;;;24.00;48.60;;;;;;1518103;76;890;-66
2021/08/20 09:19:18;;;;;;;;;;;24.00;48.60;;;;;;1543159;75;1181;-67
2021/08/20 09:21:22;;;;;;;;;;;24.00;48.60;;;;;;1544828;76;1913;-66
2021/08/20 09:23:25;;;;;;;;;;;24.00;48.60;;;;;;1549881;76;1099;-66
2021/08/20 09:25:45;;;;;;;;;;;24.00;48.60;;;;;;1548792;76;785;-68
2021/08/20 09:27:47;;;;;;;;;;;24.00;48.60;;;;;;1546217;76;1162;-67
2021/08/20 09:29:56;;;;;;;;;;;24.10;48.80;;;;;;1551856;76;790;-68
2021/08/20 09:31:57;;;;;;;;;;;24.10;48.80;;;;;;1551409;76;714;-66
2021/08/20 09:34:01;;;;;;;;;;;24.10;48.80;;;;;;1525290;78;1139;-65
2021/08/20 09:36:09;;;;;;;;;;;24.10;48.80;;;;;;1543067;76;718;-67
2021/08/20 09:38:12;;;;;;;;;;;24.10;48.70;;;;;;1551678;76;1138;-66
2021/08/20 09:40:16;;;;;;;;;;;24.10;48.70;;;;;;1545201;76;1930;-66
2021/08/20 09:42:19;;;;;;;;;;;24.20;48.60;;;;;;1535969;76;1988;-66
2021/08/20 09:44:28;;;;;;;;;;;24.20;48.60;;;;;;1537901;76;680;-68
2021/08/20 09:46:24;;;;;;;;;;;24.20;48.40;;;;;;1539283;76;1805;-67
2021/08/20 09:48:45;;;;;;;;;;;24.10;48.40;;;;;;1544251;76;1167;-67
2021/08/20 09:50:48;;;;;;;;;;;24.10;48.40;;;;;;1542590;76;731;-69
2021/08/20 09:52:50;;;;;;;;;;;24.00;48.30;;;;;;1544298;76;704;-67
2021/08/20 09:54:52;;;;;;;;;;;24.00;48.30;;;;;;1542641;76;799;-67
2021/08/20 09:56:53;;;;;;;;;;;24.00;48.20;;;;;;1548800;76;711;-68
2021/08/20 09:58:57;;;;;;;;;;;24.00;48.20;;;;;;1554355;75;1086;-67
2021/08/20 10:01:01;;;;;;;;;;;24.00;48.10;;;;;;1547179;76;1925;-68
2021/08/20 10:03:04;;;;;;;;;;;24.00;48.10;;;;;;1541877;75;697;-68
2021/08/20 10:05:06;;;;;;;;;;;24.00;47.90;;;;;;1539581;75;723;-66
2021/08/20 10:07:08;;;;;;;;;;;24.00;47.80;;;;;;1542868;76;721;-67
2021/08/20 10:09:13;;;;;;;;;;;24.00;47.80;;;;;;1546159;76;1180;-67
2021/08/20 10:11:16;;;;;;;;;;;24.00;47.90;;;;;;1553635;76;750;-69
2021/08/20 10:13:18;;;;;;;;;;;24.00;47.80;;;;;;1551051;76;742;-67
2021/08/20 10:15:20;;;;;;;;;;;24.00;47.90;;;;;;1549335;76;777;-67
2021/08/20 10:17:22;;;;;;;;;;;24.00;47.80;;;;;;1550991;76;1142;-68
2021/08/20 10:19:24;;;;;;;;;;;24.00;47.80;;;;;;1548818;76;828;-67
2021/08/20 10:21:26;;;;;;;;;;;24.00;47.80;;;;;;1547996;75;1941;-67
2021/08/20 10:23:28;;;;;;;;;;;24.00;47.80;;;;;;1550701;76;722;-68
2021/08/20 10:25:31;;;;;;;;;;;24.00;47.80;;;;;;1547216;76;705;-67
2021/08/20 10:27:34;;;;;;;;;;;24.00;47.80;;;;;;1549513;76;1148;-68
2021/08/20 10:29:38;;;;;;;;;;;23.90;47.80;;;;;;1549445;76;805;-69
2021/08/20 10:31:41;;;;;;;;;;;24.00;47.70;;;;;;1547642;76;856;-67
2021/08/20 10:33:43;;;;;;;;;;;24.00;47.60;;;;;;1553026;76;703;-67
2021/08/20 10:35:54;;;;;;;;;;;24.00;47.60;;;;;;1551903;76;776;-68
2021/08/20 10:37:56;;;;;;;;;;;24.00;47.50;;;;;;1538649;76;1150;-67
2021/08/20 10:40:03;;;;;;;;;;;24.00;47.50;;;;;;1541371;76;1948;-69
2021/08/20 10:42:06;;;;;;;;;;;24.00;47.40;;;;;;1536087;75;1076;-68
2021/08/20 10:44:13;;;;;;;;;;;24.00;47.50;;;;;;1543203;76;738;-67
2021/08/20 10:46:35;;;;;;;;;;;23.90;47.40;;;;;;1545956;76;735;-69
2021/08/20 10:48:37;;;;;;;;;;;24.00;47.40;;;;;;1546081;76;1178;-68
2021/08/20 10:50:39;;;;;;;;;;;24.00;47.40;;;;;;1541437;75;801;-67
2021/08/20 10:52:41;;;;;;;;;;;24.00;47.40;;;;;;1538226;76;785;-70
2021/08/20 10:54:48;;;;;;;;;;;24.10;47.60;;;;;;1545609;76;712;-69
2021/08/20 10:56:49;;;;;;;;;;;24.00;47.50;;;;;;1548072;76;687;-67
2021/08/20 10:58:51;;;;;;;;;;;24.00;47.40;;;;;;1540593;75;1139;-69
2021/08/20 11:00:54;;;;;;;;;;;24.00;47.50;;;;;;1549468;76;1946;-67
2021/08/20 11:02:59;;;;;;;;;;;24.00;47.40;;;;;;1542996;76;809;-68
2021/08/20 11:05:08;;;;;;;;;;;24.00;47.40;;;;;;1537952;76;711;-67
2021/08/20 11:07:10;;;;;;;;;;;24.00;47.40;;;;;;1551026;76;673;-68
2021/08/20 11:09:27;;;;;;;;;;;24.00;47.50;;;;;;1548554;76;1111;-67
2021/08/20 11:11:39;;;;;;;;;;;24.00;47.50;;;;;;1532879;76;737;-67
2021/08/20 11:13:41;;;;;;;;;;;24.00;47.50;;;;;;1548070;76;1122;-67
2021/08/20 11:15:44;;;;;;;;;;;24.00;47.40;;;;;;1512921;77;996;-67
2021/08/20 11:17:56;;;;;;;;;;;24.00;47.30;;;;;;1548574;76;1174;-68
2021/08/20 11:19:58;;;;;;;;;;;24.00;47.30;;;;;;1548172;75;728;-67
2021/08/20 11:22:16;;;;;;;;;;;23.90;47.30;;;;;;1547405;76;1933;-67
2021/08/20 11:24:18;;;;;;;;;;;23.90;47.30;;;;;;1521909;76;1599;-68
2021/08/20 11:26:31;;;;;;;;;;;23.90;47.20;;;;;;1549375;76;760;-68
2021/08/20 11:28:33;;;;;;;;;;;24.00;47.20;;;;;;1542343;75;1128;-67
2021/08/20 11:30:37;;;;;;;;;;;23.90;47.20;;;;;;1544445;76;785;-68
2021/08/20 11:32:39;;;;;;;;;;;24.00;47.20;;;;;;1544412;76;1366;-67
2021/08/20 11:34:42;;;;;;;;;;;23.90;47.10;;;;;;1554674;76;847;-68
2021/08/20 11:36:45;;;;;;;;;;;23.90;47.10;;;;;;1547335;76;1088;-68
2021/08/20 11:38:52;;;;;;;;;;;23.90;47.10;;;;;;1524819;76;1174;-68
2021/08/20 11:40:55;;;;;;;;;;;23.90;47.10;;;;;;1525392;76;1911;-69
2021/08/20 11:43:06;;;;;;;;;;;24.00;47.00;;;;;;1536179;76;743;-68
2021/08/20 11:45:18;;;;;;;;;;;23.90;47.00;;;;;;1547958;76;710;-69
2021/08/20 11:47:20;;;;;;;;;;;24.00;46.90;;;;;;1536248;76;688;-68
2021/08/20 11:49:26;;;;;;;;;;;24.00;47.00;;;;;;1549341;76;716;-67
2021/08/20 11:51:34;;;;;;;;;;;23.90;47.00;;;;;;1550447;74;759;-67
2021/08/20 11:53:37;;;;;;;;;;;24.00;47.10;;;;;;1548716;74;769;-67
2021/08/20 11:55:39;;;;;;;;;;;24.00;47.00;;;;;;1552764;74;1109;-69
2021/08/20 11:57:41;;;;;;;;;;;24.00;47.00;;;;;;1558612;74;1089;-68
2021/08/20 11:59:53;;;;;;;;;;;24.00;46.90;;;;;;1552836;74;761;-69
2021/08/20 12:01:55;;;;;;;;;;;24.00;46.90;;;;;;1558430;74;1923;-67
2021/08/20 12:03:57;;;;;;;;;;;24.00;46.80;;;;;;1559840;74;821;-67
2021/08/20 12:06:08;;;;;;;;;;;24.00;46.80;;;;;;1555977;74;737;-67
2021/08/20 12:08:12;;;;;;;;;;;24.00;46.80;;;;;;1561253;75;1098;-68
2021/08/20 12:10:16;;;;;;;;;;;24.00;46.70;;;;;;1557320;74;1043;-69
2021/08/20 12:12:18;;;;;;;;;;;24.00;46.70;;;;;;1570193;74;773;-67